Time;durP1;ratioP1;P1;durP2;ratioP2;P2;SDS_P1;SDS_P2;PMS_P1;PMS_P2;Temp;Humidity;BMP_temperature;BMP_pressure;BME280_temperature;BME280_humidity;BME280_pressure;Samples;Min_cycle;Max_cycle;Signal;HPM_P1;HPM_P2
2023/12/26 00:01:45;;;;;;;3.30;0.97;;;10.70;99.90;;;;;;5023488;28;20209;-82
2023/12/26 00:04:12;;;;;;;0.60;0.60;;;10.70;99.90;;;;;;5032172;28;20448;-80
2023/12/26 00:06:43;;;;;;;0.50;0.40;;;10.70;99.90;;;;;;5034254;28;20442;-82
2023/12/26 00:09:10;;;;;;;0.60;0.60;;;10.70;99.90;;;;;;5036651;28;20972;-83
2023/12/26 00:11:43;;;;;;;0.60;0.60;;;10.70;99.90;;;;;;5034209;28;20483;-84
2023/12/26 00:14:10;;;;;;;0.70;0.70;;;10.70;99.90;;;;;;5034038;28;20475;-82
2023/12/26 00:16:37;;;;;;;0.50;0.50;;;10.80;99.90;;;;;;5034441;28;20524;-82
2023/12/26 00:19:04;;;;;;;0.57;0.40;;;10.80;99.90;;;;;;5037113;28;20831;-83
2023/12/26 00:21:31;;;;;;;0.60;0.60;;;10.80;99.90;;;;;;5036219;28;20482;-82
2023/12/26 00:23:58;;;;;;;0.50;0.50;;;10.70;99.90;;;;;;5039393;28;20509;-82
2023/12/26 00:26:24;;;;;;;0.60;0.50;;;10.70;99.90;;;;;;5032688;28;20471;-81
2023/12/26 00:28:53;;;;;;;1.23;1.13;;;10.70;99.90;;;;;;5033314;28;20531;-81
2023/12/26 00:31:19;;;;;;;0.43;0.40;;;10.80;99.90;;;;;;5033359;28;20475;-81
2023/12/26 00:33:48;;;;;;;0.60;0.60;;;10.80;99.90;;;;;;5033061;28;20470;-81
2023/12/26 00:36:17;;;;;;;0.50;0.40;;;10.80;99.90;;;;;;5040029;28;20446;-81
2023/12/26 00:38:44;;;;;;;0.50;0.47;;;10.80;99.90;;;;;;5033433;28;20483;-82
2023/12/26 00:41:12;;;;;;;0.43;0.40;;;10.80;99.90;;;;;;5033479;28;20467;-83
2023/12/26 00:43:38;;;;;;;0.50;0.50;;;10.80;99.90;;;;;;5035888;28;20558;-83
2023/12/26 00:46:07;;;;;;;15.87;1.10;;;10.80;99.90;;;;;;5037990;28;20478;-79
2023/12/26 00:48:35;;;;;;;0.60;0.60;;;10.80;99.90;;;;;;5032814;28;20435;-81
2023/12/26 00:51:02;;;;;;;0.50;0.50;;;10.80;99.90;;;;;;5032834;28;20926;-82
2023/12/26 00:53:29;;;;;;;0.60;0.60;;;10.90;99.90;;;;;;5023942;28;20444;-82
2023/12/26 00:55:56;;;;;;;0.70;0.40;;;10.80;99.90;;;;;;5024471;28;20459;-80
2023/12/26 00:58:23;;;;;;;0.50;0.40;;;10.80;99.90;;;;;;5023308;28;20503;-80
2023/12/26 01:00:50;;;;;;;2.00;0.60;;;10.80;99.90;;;;;;5025723;28;21029;-82
2023/12/26 01:03:21;;;;;;;0.40;0.40;;;10.80;99.90;;;;;;5032765;28;20478;-81
2023/12/26 01:05:49;;;;;;;0.70;0.50;;;10.70;99.90;;;;;;5031940;28;20925;-81
2023/12/26 01:08:16;;;;;;;0.50;0.50;;;10.60;99.90;;;;;;5031308;28;20515;-81
2023/12/26 01:10:43;;;;;;;0.70;0.57;;;10.60;99.90;;;;;;5035160;28;20482;-82
2023/12/26 01:13:10;;;;;;;0.50;0.50;;;10.50;99.90;;;;;;5035575;28;20438;-81
2023/12/26 01:15:37;;;;;;;0.50;0.50;;;10.40;99.90;;;;;;5035221;28;20463;-81
2023/12/26 01:18:04;;;;;;;0.50;0.50;;;10.30;99.90;;;;;;5035517;28;20510;-81
2023/12/26 01:20:32;;;;;;;0.90;0.57;;;10.30;99.90;;;;;;5034051;28;20534;-79
2023/12/26 01:22:59;;;;;;;0.50;0.47;;;10.20;99.90;;;;;;5031256;28;20469;-79
2023/12/26 01:25:26;;;;;;;0.60;0.50;;;10.20;99.90;;;;;;5032244;28;20462;-79
2023/12/26 01:27:53;;;;;;;1.02;0.60;;;10.20;99.90;;;;;;5039823;28;20435;-81
2023/12/26 01:30:20;;;;;;;0.77;0.50;;;10.20;99.90;;;;;;5031884;28;20759;-80
2023/12/26 01:32:47;;;;;;;0.60;0.50;;;10.10;99.90;;;;;;5034168;28;20934;-82
2023/12/26 01:35:13;;;;;;;0.73;0.67;;;10.10;99.90;;;;;;5034972;28;20487;-81
2023/12/26 01:37:42;;;;;;;0.40;0.30;;;10.10;99.90;;;;;;5034299;28;20561;-80
2023/12/26 01:40:10;;;;;;;2.57;0.60;;;10.00;99.90;;;;;;5034623;28;20215;-80
2023/12/26 01:42:37;;;;;;;0.60;0.60;;;10.00;99.90;;;;;;5033609;28;20481;-82
2023/12/26 01:45:05;;;;;;;0.73;0.60;;;10.00;99.90;;;;;;5031446;28;20203;-80
2023/12/26 01:47:32;;;;;;;0.40;0.40;;;9.90;99.90;;;;;;5030072;28;20691;-82
2023/12/26 01:49:59;;;;;;;0.40;0.37;;;9.90;99.90;;;;;;5031803;28;20220;-82
2023/12/26 01:52:26;;;;;;;0.70;0.70;;;9.90;99.90;;;;;;5031498;28;20512;-81
2023/12/26 01:54:54;;;;;;;0.40;0.40;;;9.90;99.90;;;;;;5036172;28;20244;-82
2023/12/26 01:57:21;;;;;;;0.40;0.35;;;9.90;99.90;;;;;;5035081;28;20227;-81
2023/12/26 01:59:48;;;;;;;0.85;0.85;;;9.90;99.90;;;;;;5031206;28;20667;-82
2023/12/26 02:02:15;;;;;;;0.40;0.40;;;9.90;99.90;;;;;;5031240;28;20197;-82
2023/12/26 02:04:42;;;;;;;0.80;0.60;;;9.90;99.90;;;;;;5032725;28;20731;-83
2023/12/26 02:07:09;;;;;;;0.70;0.70;;;9.90;99.90;;;;;;5037811;28;20489;-80
2023/12/26 02:09:37;;;;;;;0.60;0.60;;;9.80;99.90;;;;;;5038512;28;20493;-83
2023/12/26 02:12:05;;;;;;;0.50;0.50;;;9.80;99.90;;;;;;5036556;28;20238;-81
2023/12/26 02:14:32;;;;;;;0.40;0.40;;;9.80;99.90;;;;;;5036465;28;20467;-81
2023/12/26 02:17:03;;;;;;;2.37;2.17;;;9.80;99.90;;;;;;5039914;28;20506;-82
2023/12/26 02:19:30;;;;;;;0.60;0.55;;;9.80;99.90;;;;;;5039535;28;20477;-82
2023/12/26 02:21:56;;;;;;;1.50;1.02;;;9.80;99.90;;;;;;5028472;28;20223;-81
2023/12/26 02:24:25;;;;;;;0.40;0.40;;;9.80;99.90;;;;;;5036123;28;20315;-82
2023/12/26 02:26:55;;;;;;;0.73;0.63;;;9.80;99.90;;;;;;5038487;28;20235;-82
2023/12/26 02:29:23;;;;;;;0.40;0.37;;;9.70;99.90;;;;;;5040380;28;20521;-83
2023/12/26 02:31:54;;;;;;;0.90;0.53;;;9.70;99.90;;;;;;5036883;28;20473;-83
2023/12/26 02:34:22;;;;;;;1.63;0.60;;;9.70;99.90;;;;;;5036558;28;20503;-83
2023/12/26 02:36:49;;;;;;;0.40;0.30;;;9.70;99.90;;;;;;5037734;28;20535;-83
2023/12/26 02:39:16;;;;;;;0.50;0.47;;;9.70;99.90;;;;;;5038783;28;20538;-82
2023/12/26 02:41:45;;;;;;;0.73;0.73;;;9.70;99.90;;;;;;5038096;28;20502;-82
2023/12/26 02:44:11;;;;;;;1.45;1.35;;;9.70;99.90;;;;;;5036393;28;20452;-83
2023/12/26 02:46:38;;;;;;;0.40;0.40;;;9.70;99.90;;;;;;5035921;28;20219;-84
2023/12/26 02:49:05;;;;;;;1.07;0.70;;;9.70;99.90;;;;;;5035972;28;20491;-82
2023/12/26 02:51:32;;;;;;;0.50;0.50;;;9.70;99.90;;;;;;5035493;28;20446;-82
2023/12/26 02:53:59;;;;;;;0.83;0.80;;;9.70;99.90;;;;;;5036261;28;20440;-82
2023/12/26 02:56:26;;;;;;;1.53;0.90;;;9.70;99.90;;;;;;5035776;28;20504;-82
2023/12/26 02:58:54;;;;;;;0.60;0.60;;;9.70;99.90;;;;;;5037370;28;20498;-82
2023/12/26 03:01:21;;;;;;;1.00;0.95;;;9.70;99.90;;;;;;5038938;28;20553;-82
2023/12/26 03:03:47;;;;;;;0.80;0.80;;;9.70;99.90;;;;;;5036687;28;20224;-84
2023/12/26 03:06:14;;;;;;;0.83;0.80;;;9.70;99.90;;;;;;5035695;28;20463;-82
2023/12/26 03:08:41;;;;;;;0.60;0.60;;;9.70;99.90;;;;;;5035640;28;20455;-81
2023/12/26 03:11:08;;;;;;;0.70;0.70;;;9.70;99.90;;;;;;5037745;28;20538;-82
2023/12/26 03:13:35;;;;;;;1.02;0.60;;;9.70;99.90;;;;;;5037850;28;20689;-82
2023/12/26 03:16:03;;;;;;;0.60;0.60;;;9.70;99.90;;;;;;5026424;28;20196;-81
2023/12/26 03:18:30;;;;;;;0.50;0.50;;;9.60;99.90;;;;;;5033644;28;20295;-83
2023/12/26 03:20:57;;;;;;;1.92;0.85;;;9.60;99.90;;;;;;5037233;28;20279;-82
2023/12/26 03:23:22;;;;;;;0.90;0.90;;;9.70;99.90;;;;;;5036691;28;20223;-82
2023/12/26 03:25:49;;;;;;;0.77;0.77;;;9.70;99.90;;;;;;5036052;28;20226;-82
2023/12/26 03:28:16;;;;;;;0.50;0.40;;;9.70;99.90;;;;;;5039561;28;20503;-83
2023/12/26 03:30:43;;;;;;;0.70;0.70;;;9.60;99.90;;;;;;5035615;28;20991;-81
2023/12/26 03:33:11;;;;;;;0.50;0.50;;;9.70;99.90;;;;;;5032402;28;20662;-82
2023/12/26 03:35:38;;;;;;;0.50;0.50;;;9.70;99.90;;;;;;5030312;28;20267;-82
2023/12/26 03:38:05;;;;;;;1.13;0.98;;;9.60;99.90;;;;;;5029935;28;20299;-81
2023/12/26 03:40:32;;;;;;;0.70;0.70;;;9.60;99.90;;;;;;5030271;28;20226;-82
2023/12/26 03:42:59;;;;;;;0.40;0.30;;;9.60;99.90;;;;;;5029619;28;20295;-81
2023/12/26 03:45:26;;;;;;;1.65;0.70;;;9.70;99.90;;;;;;5028605;28;20207;-82
2023/12/26 03:47:53;;;;;;;0.50;0.40;;;9.70;99.90;;;;;;5029841;28;20201;-82
2023/12/26 03:50:22;;;;;;;0.82;0.60;;;9.70;99.90;;;;;;5032953;28;20305;-84
2023/12/26 03:52:48;;;;;;;0.40;0.40;;;9.70;99.90;;;;;;5031688;28;20235;-81
2023/12/26 03:55:16;;;;;;;0.40;0.40;;;9.70;99.90;;;;;;5029867;28;20256;-80
2023/12/26 03:57:43;;;;;;;0.70;0.70;;;9.70;99.90;;;;;;5030215;28;20196;-81
2023/12/26 04:00:10;;;;;;;1.23;0.65;;;9.70;99.90;;;;;;5033085;28;20279;-81
2023/12/26 04:02:37;;;;;;;0.50;0.50;;;9.60;99.90;;;;;;5032727;28;20223;-82
2023/12/26 04:05:05;;;;;;;0.40;0.35;;;9.60;99.90;;;;;;5029070;28;20238;-83
2023/12/26 04:07:33;;;;;;;0.57;0.40;;;9.60;99.90;;;;;;5029927;28;20203;-83
2023/12/26 04:10:00;;;;;;;0.77;0.77;;;9.70;99.90;;;;;;5029787;28;22337;-83
2023/12/26 04:12:28;;;;;;;0.50;0.40;;;9.70;99.90;;;;;;5030238;28;20294;-82
2023/12/26 04:14:55;;;;;;;0.40;0.40;;;9.70;99.90;;;;;;5031492;28;20251;-80
2023/12/26 04:17:22;;;;;;;0.40;0.40;;;9.60;99.90;;;;;;5032999;28;20239;-82
2023/12/26 04:19:49;;;;;;;1.27;1.27;;;9.60;99.90;;;;;;5031472;28;20261;-81
2023/12/26 04:22:16;;;;;;;1.40;0.60;;;9.70;99.90;;;;;;5029726;28;20196;-83
2023/12/26 04:24:44;;;;;;;2.83;1.35;;;9.70;99.90;;;;;;5031230;28;20519;-80
2023/12/26 04:27:11;;;;;;;0.50;0.50;;;9.70;99.90;;;;;;5034579;28;20655;-82
2023/12/26 04:29:38;;;;;;;7.80;1.95;;;9.70;99.90;;;;;;5033711;28;20299;-82
2023/12/26 04:32:06;;;;;;;0.50;0.40;;;9.70;99.90;;;;;;5031714;28;20245;-82
2023/12/26 04:34:33;;;;;;;2.03;1.38;;;9.70;99.90;;;;;;5031555;28;20197;-82
2023/12/26 04:37:00;;;;;;;1.10;1.10;;;9.70;99.90;;;;;;5031374;28;20271;-82
2023/12/26 04:39:26;;;;;;;1.25;0.50;;;9.70;99.90;;;;;;5032175;28;20211;-82
2023/12/26 04:41:55;;;;;;;0.50;0.50;;;9.70;99.90;;;;;;5030566;28;20263;-83
2023/12/26 04:44:21;;;;;;;0.80;0.55;;;9.70;99.90;;;;;;5033124;28;20526;-83
2023/12/26 04:46:48;;;;;;;0.60;0.50;;;9.70;99.90;;;;;;5029960;28;20607;-82
2023/12/26 04:49:15;;;;;;;0.50;0.40;;;9.70;99.90;;;;;;5027386;28;20978;-81
2023/12/26 04:51:42;;;;;;;0.40;0.30;;;9.70;99.90;;;;;;5027064;28;20452;-81
2023/12/26 04:54:09;;;;;;;0.60;0.50;;;9.70;99.90;;;;;;5030247;28;20278;-82
2023/12/26 04:56:39;;;;;;;0.50;0.40;;;9.80;99.90;;;;;;5030809;28;20196;-82
2023/12/26 04:59:07;;;;;;;0.80;0.70;;;9.80;99.90;;;;;;5027326;28;20604;-82
2023/12/26 05:01:40;;;;;;;0.50;0.30;;;9.70;99.90;;;;;;5026961;28;20720;-82
2023/12/26 05:04:07;;;;;;;0.40;0.40;;;9.70;99.90;;;;;;5028287;28;20282;-83
2023/12/26 05:06:34;;;;;;;0.40;0.35;;;9.70;99.90;;;;;;5012873;28;20333;-81
2023/12/26 05:09:02;;;;;;;0.40;0.38;;;9.70;99.90;;;;;;5014997;28;20257;-82
2023/12/26 05:11:29;;;;;;;0.40;0.30;;;9.80;99.90;;;;;;5019061;28;20263;-81
2023/12/26 05:13:55;;;;;;;0.73;0.50;;;9.70;99.90;;;;;;5018742;28;20541;-83
2023/12/26 05:16:24;;;;;;;0.60;0.60;;;9.70;99.90;;;;;;5018928;28;21017;-81
2023/12/26 05:18:51;;;;;;;0.50;0.50;;;9.70;99.90;;;;;;5018436;28;20546;-82
2023/12/26 05:21:18;;;;;;;0.40;0.40;;;9.70;99.90;;;;;;5018281;28;20478;-83
2023/12/26 05:23:46;;;;;;;0.40;0.30;;;9.70;99.90;;;;;;5019161;28;20537;-83
2023/12/26 05:26:13;;;;;;;0.60;0.40;;;9.70;99.90;;;;;;5021457;28;20282;-82
2023/12/26 05:28:39;;;;;;;0.40;0.35;;;9.60;99.90;;;;;;5030653;28;20279;-81
2023/12/26 05:31:06;;;;;;;0.40;0.40;;;9.70;99.90;;;;;;5030629;28;20299;-82
2023/12/26 05:33:35;;;;;;;0.40;0.40;;;9.70;99.90;;;;;;5031238;28;20224;-82
2023/12/26 05:36:02;;;;;;;0.40;0.40;;;9.70;99.90;;;;;;5028158;28;20510;-80
2023/12/26 05:38:29;;;;;;;0.40;0.40;;;9.60;99.90;;;;;;5020691;28;20293;-82
2023/12/26 05:40:56;;;;;;;0.60;0.53;;;9.70;99.90;;;;;;5018896;28;20471;-81
2023/12/26 05:43:23;;;;;;;0.40;0.30;;;9.60;99.90;;;;;;5028133;28;20467;-83
2023/12/26 05:45:50;;;;;;;0.50;0.40;;;9.60;99.90;;;;;;5030555;28;20231;-81
2023/12/26 05:48:17;;;;;;;1.23;0.70;;;9.60;99.90;;;;;;5041136;28;20196;-83
2023/12/26 05:50:45;;;;;;;0.40;0.40;;;9.50;99.90;;;;;;5033398;28;20258;-80
2023/12/26 05:53:12;;;;;;;0.90;0.63;;;9.50;99.90;;;;;;5031106;28;21006;-81
2023/12/26 05:55:39;;;;;;;0.75;0.52;;;9.40;99.90;;;;;;5028732;28;20199;-84
2023/12/26 05:58:06;;;;;;;0.40;0.30;;;9.40;99.90;;;;;;5025661;28;20291;-82
2023/12/26 06:00:33;;;;;;;0.70;0.60;;;9.40;99.90;;;;;;5029638;28;20562;-80
2023/12/26 06:02:59;;;;;;;0.40;0.30;;;9.40;99.90;;;;;;5031226;28;20308;-82
2023/12/26 06:05:27;;;;;;;0.40;0.30;;;9.40;99.90;;;;;;5030313;28;20612;-82
2023/12/26 06:07:55;;;;;;;0.50;0.50;;;9.40;99.90;;;;;;5030127;28;20292;-83
2023/12/26 06:10:22;;;;;;;0.50;0.40;;;9.40;99.90;;;;;;5034056;28;20216;-83
2023/12/26 06:12:49;;;;;;;0.40;0.40;;;9.40;99.90;;;;;;5032703;28;20505;-83
2023/12/26 06:15:16;;;;;;;1.05;0.93;;;9.40;99.90;;;;;;5025093;28;20506;-81
2023/12/26 06:17:42;;;;;;;0.40;0.40;;;9.30;99.90;;;;;;5034374;28;20202;-83
2023/12/26 06:20:09;;;;;;;0.40;0.40;;;9.30;99.90;;;;;;5031755;28;20576;-79
2023/12/26 06:22:36;;;;;;;0.40;0.30;;;9.30;99.90;;;;;;5028049;28;20496;-82
2023/12/26 06:25:05;;;;;;;0.40;0.40;;;9.30;99.90;;;;;;5031827;28;20442;-81
2023/12/26 06:27:32;;;;;;;0.87;0.67;;;9.20;99.90;;;;;;5030507;28;20515;-82
2023/12/26 06:29:59;;;;;;;0.50;0.40;;;9.20;99.90;;;;;;5031181;28;20489;-84
2023/12/26 06:32:26;;;;;;;0.70;0.43;;;9.20;99.90;;;;;;5028781;28;20439;-83
2023/12/26 06:34:54;;;;;;;3.20;0.70;;;9.20;99.90;;;;;;5030890;28;20197;-83
2023/12/26 06:37:20;;;;;;;0.60;0.60;;;9.20;99.90;;;;;;5021939;28;20193;-79
2023/12/26 06:39:47;;;;;;;0.40;0.40;;;9.20;99.90;;;;;;5030243;28;20223;-82
2023/12/26 06:42:16;;;;;;;0.40;0.40;;;9.20;99.90;;;;;;5032806;28;20472;-79
2023/12/26 06:44:42;;;;;;;0.40;0.30;;;9.20;99.90;;;;;;5034663;28;20818;-79
2023/12/26 06:47:09;;;;;;;3.03;0.70;;;9.20;99.90;;;;;;5031687;28;20515;-82
2023/12/26 06:49:36;;;;;;;0.50;0.50;;;9.20;99.90;;;;;;5032845;28;20466;-83
2023/12/26 06:52:03;;;;;;;0.50;0.50;;;9.20;99.90;;;;;;5030890;28;20287;-82
2023/12/26 06:54:32;;;;;;;0.60;0.60;;;9.20;99.90;;;;;;5029926;28;20475;-82
2023/12/26 06:57:05;;;;;;;0.40;0.40;;;9.10;99.90;;;;;;5029900;28;20200;-82
2023/12/26 06:59:33;;;;;;;0.40;0.40;;;9.10;99.90;;;;;;5033846;28;20794;-82
2023/12/26 07:02:00;;;;;;;0.40;0.30;;;9.00;99.90;;;;;;5024938;28;20447;-82
2023/12/26 07:04:28;;;;;;;7.07;2.00;;;9.10;99.90;;;;;;5032740;28;20443;-82
2023/12/26 07:06:54;;;;;;;0.40;0.40;;;9.00;99.90;;;;;;5031537;28;20514;-83
2023/12/26 07:09:21;;;;;;;4.00;0.57;;;9.00;99.90;;;;;;5028315;28;20455;-82
2023/12/26 07:11:51;;;;;;;0.50;0.50;;;9.00;99.90;;;;;;5029287;28;20479;-83
2023/12/26 07:14:18;;;;;;;0.40;0.35;;;9.00;99.90;;;;;;5031752;28;20539;-81
2023/12/26 07:16:46;;;;;;;0.40;0.40;;;9.00;99.90;;;;;;5032789;28;20236;-82
2023/12/26 07:19:13;;;;;;;0.40;0.30;;;9.00;99.90;;;;;;5030655;28;20303;-82
2023/12/26 07:21:40;;;;;;;0.40;0.40;;;9.00;99.90;;;;;;5029039;28;20232;-81
2023/12/26 07:24:07;;;;;;;0.40;0.40;;;9.00;99.90;;;;;;5030341;28;20879;-80
2023/12/26 07:26:34;;;;;;;0.70;0.70;;;9.00;99.90;;;;;;5031222;28;20259;-80
2023/12/26 07:29:01;;;;;;;0.73;0.63;;;9.00;99.90;;;;;;5028070;28;20231;-80
2023/12/26 07:31:28;;;;;;;0.40;0.40;;;8.90;99.90;;;;;;5028550;28;20298;-81
2023/12/26 07:33:58;;;;;;;0.50;0.50;;;8.90;99.90;;;;;;5028333;28;20287;-81
2023/12/26 07:36:25;;;;;;;0.40;0.40;;;8.90;99.90;;;;;;5024953;28;20462;-81
2023/12/26 07:38:52;;;;;;;0.50;0.50;;;8.90;99.90;;;;;;5024322;28;20546;-80
2023/12/26 07:41:19;;;;;;;1.07;0.97;;;8.80;99.90;;;;;;5027329;28;20555;-81
2023/12/26 07:43:47;;;;;;;0.40;0.40;;;8.80;99.90;;;;;;5027829;28;20474;-81
2023/12/26 07:46:14;;;;;;;0.47;0.40;;;8.80;99.90;;;;;;5025921;28;20901;-80
2023/12/26 07:48:41;;;;;;;0.73;0.52;;;8.80;99.90;;;;;;5024529;28;20443;-81
2023/12/26 07:51:11;;;;;;;0.40;0.32;;;8.80;99.90;;;;;;5025068;28;20323;-81
2023/12/26 07:53:38;;;;;;;0.40;0.40;;;8.80;99.90;;;;;;5028140;28;20675;-81
2023/12/26 07:56:05;;;;;;;0.50;0.50;;;8.80;99.90;;;;;;5019299;28;20450;-80
2023/12/26 07:58:32;;;;;;;0.40;0.40;;;8.80;99.90;;;;;;5028243;28;20645;-82
2023/12/26 08:00:58;;;;;;;0.40;0.40;;;8.80;99.90;;;;;;5027890;28;20599;-81
2023/12/26 08:03:25;;;;;;;0.40;0.40;;;8.90;99.90;;;;;;5023810;28;20279;-82
2023/12/26 08:05:52;;;;;;;0.50;0.50;;;8.90;99.90;;;;;;5022587;28;20260;-82
2023/12/26 08:08:20;;;;;;;0.40;0.40;;;8.90;99.90;;;;;;5024745;28;20291;-81
2023/12/26 08:10:47;;;;;;;0.40;0.30;;;8.90;99.90;;;;;;5026751;28;20755;-81
2023/12/26 08:13:14;;;;;;;1.50;0.93;;;8.90;99.90;;;;;;5027002;28;20286;-81
2023/12/26 08:15:41;;;;;;;0.70;0.55;;;8.90;99.90;;;;;;5025323;28;20719;-80
2023/12/26 08:18:08;;;;;;;2.97;0.60;;;8.90;99.90;;;;;;5021868;28;20287;-81
2023/12/26 08:20:37;;;;;;;0.40;0.40;;;8.80;99.90;;;;;;5015804;28;20646;-81
2023/12/26 08:23:04;;;;;;;0.40;0.40;;;8.80;99.90;;;;;;5027378;28;20201;-79
2023/12/26 08:25:32;;;;;;;0.40;0.40;;;8.80;99.90;;;;;;5018370;28;20195;-79
2023/12/26 08:27:59;;;;;;;0.80;0.80;;;8.80;99.90;;;;;;5017980;28;20538;-78
2023/12/26 08:30:26;;;;;;;3.05;0.60;;;8.70;99.90;;;;;;5031066;28;20987;-77
2023/12/26 08:32:53;;;;;;;0.40;0.40;;;8.70;99.90;;;;;;5021003;28;20553;-80
2023/12/26 08:35:20;;;;;;;0.40;0.40;;;8.60;99.90;;;;;;5026256;28;20291;-80
2023/12/26 08:37:46;;;;;;;0.40;0.40;;;8.50;99.90;;;;;;5027069;28;20291;-79
2023/12/26 08:40:13;;;;;;;0.40;0.40;;;8.50;99.90;;;;;;5030373;28;20284;-79
2023/12/26 08:42:41;;;;;;;0.40;0.40;;;8.50;99.90;;;;;;5031967;28;20226;-80
2023/12/26 08:45:10;;;;;;;0.40;0.40;;;8.40;99.90;;;;;;5031451;28;20529;-79
2023/12/26 08:47:37;;;;;;;0.52;0.52;;;8.40;99.90;;;;;;5024989;28;20632;-79
2023/12/26 08:50:05;;;;;;;0.40;0.40;;;8.50;99.90;;;;;;5024787;28;20279;-80
2023/12/26 08:52:32;;;;;;;0.40;0.40;;;8.50;99.90;;;;;;5016541;28;20251;-80
2023/12/26 08:54:59;;;;;;;0.50;0.40;;;8.60;99.90;;;;;;5026622;28;20263;-80
2023/12/26 08:57:26;;;;;;;0.40;0.40;;;8.70;99.90;;;;;;5029943;28;20235;-80
2023/12/26 08:59:54;;;;;;;0.70;0.70;;;8.70;99.90;;;;;;5025814;28;20480;-80
2023/12/26 09:02:21;;;;;;;0.40;0.30;;;8.80;99.90;;;;;;5026561;28;20215;-81
2023/12/26 09:04:48;;;;;;;0.70;0.70;;;8.90;99.90;;;;;;5033602;28;20236;-79
2023/12/26 09:07:14;;;;;;;1.30;1.17;;;9.00;99.90;;;;;;5027092;28;20287;-81
2023/12/26 09:09:41;;;;;;;0.40;0.40;;;9.20;99.90;;;;;;5028687;28;20537;-80
2023/12/26 09:12:08;;;;;;;0.40;0.40;;;9.40;99.90;;;;;;5019683;28;21174;-81
2023/12/26 09:14:36;;;;;;;3.07;1.00;;;9.60;99.90;;;;;;5018168;28;20502;-82
2023/12/26 09:17:05;;;;;;;0.50;0.40;;;9.50;99.90;;;;;;5020374;28;20439;-82
2023/12/26 09:19:32;;;;;;;0.47;0.33;;;9.40;99.90;;;;;;5016793;28;20526;-79
2023/12/26 09:21:58;;;;;;;0.50;0.40;;;9.30;99.90;;;;;;5030545;28;20473;-81
2023/12/26 09:24:25;;;;;;;0.40;0.40;;;9.20;99.90;;;;;;5029888;28;21021;-82
2023/12/26 09:26:52;;;;;;;0.50;0.47;;;9.10;99.90;;;;;;5026669;28;20558;-81
2023/12/26 09:29:19;;;;;;;3.13;2.17;;;9.00;99.90;;;;;;5026867;28;20535;-80
2023/12/26 09:31:46;;;;;;;0.40;0.30;;;9.00;99.90;;;;;;5028730;28;20623;-81
2023/12/26 09:34:17;;;;;;;1.58;0.60;;;8.90;99.90;;;;;;5025345;28;20287;-82
2023/12/26 09:36:43;;;;;;;0.70;0.50;;;8.90;99.90;;;;;;5024040;28;20672;-81
2023/12/26 09:39:10;;;;;;;1.23;0.50;;;8.90;99.90;;;;;;5023195;28;20292;-81
2023/12/26 09:41:37;;;;;;;0.50;0.40;;;8.90;99.90;;;;;;5015813;28;20503;-81
2023/12/26 09:44:04;;;;;;;1.23;0.52;;;8.90;99.90;;;;;;5023011;28;20224;-80
2023/12/26 09:46:32;;;;;;;4.45;1.65;;;9.00;99.90;;;;;;5014961;28;20250;-79
2023/12/26 09:48:59;;;;;;;0.50;0.40;;;9.20;99.90;;;;;;5021583;28;20629;-80
2023/12/26 09:51:34;;;;;;;1.52;1.52;;;9.40;99.90;;;;;;5032432;28;20568;-78
2023/12/26 09:54:03;;;;;;;1.98;0.50;;;9.60;99.90;;;;;;5029807;28;20195;-79
2023/12/26 09:56:33;;;;;;;0.70;0.53;;;9.80;99.90;;;;;;5019113;28;20194;-79
2023/12/26 09:59:01;;;;;;;0.50;0.40;;;9.80;99.90;;;;;;5015487;28;20443;-81
2023/12/26 10:01:28;;;;;;;0.50;0.40;;;9.90;99.90;;;;;;5015201;28;20490;-80
2023/12/26 10:03:56;;;;;;;0.73;0.73;;;9.90;99.90;;;;;;5016653;28;20511;-81
2023/12/26 10:06:23;;;;;;;0.50;0.40;;;10.20;99.90;;;;;;5025066;28;20213;-81
2023/12/26 10:08:51;;;;;;;0.50;0.40;;;10.40;99.90;;;;;;5026718;28;20463;-81
2023/12/26 10:11:20;;;;;;;0.50;0.40;;;10.40;99.90;;;;;;5019155;28;20523;-81
2023/12/26 10:13:50;;;;;;;0.97;0.60;;;10.50;99.90;;;;;;5017284;28;20204;-80
2023/12/26 10:16:17;;;;;;;1.60;0.60;;;10.40;99.90;;;;;;5016118;28;20822;-81
2023/12/26 10:18:44;;;;;;;1.33;0.80;;;10.10;99.90;;;;;;5015843;28;20530;-83
2023/12/26 10:21:12;;;;;;;0.50;0.50;;;10.00;99.90;;;;;;5015508;28;20562;-81
2023/12/26 10:23:38;;;;;;;0.50;0.40;;;10.00;99.90;;;;;;5016541;28;21010;-81
2023/12/26 10:26:07;;;;;;;1.53;0.93;;;9.90;99.90;;;;;;5016028;28;20196;-81
2023/12/26 10:28:38;;;;;;;0.50;0.40;;;9.70;99.90;;;;;;5019692;28;20473;-81
2023/12/26 10:31:11;;;;;;;0.55;0.55;;;9.50;99.90;;;;;;5021222;28;20459;-81
2023/12/26 10:33:38;;;;;;;1.60;1.27;;;9.40;99.90;;;;;;5019998;28;20195;-81
2023/12/26 10:36:06;;;;;;;1.07;0.60;;;9.30;99.90;;;;;;5020259;28;20436;-80
2023/12/26 10:38:33;;;;;;;0.50;0.40;;;9.20;99.90;;;;;;5019831;28;20455;-81
2023/12/26 10:41:01;;;;;;;0.50;0.40;;;9.20;99.90;;;;;;5028902;28;20483;-81
2023/12/26 10:43:30;;;;;;;0.50;0.40;;;9.20;99.90;;;;;;5029622;28;20283;-81
2023/12/26 10:45:58;;;;;;;2.65;1.10;;;9.10;99.90;;;;;;5031276;28;20442;-82
2023/12/26 10:48:28;;;;;;;0.50;0.40;;;9.10;99.90;;;;;;5038846;28;20198;-80
2023/12/26 10:50:57;;;;;;;0.50;0.40;;;9.10;99.90;;;;;;5039128;28;20542;-82
2023/12/26 10:53:30;;;;;;;0.50;0.40;;;9.40;99.90;;;;;;5039301;28;20306;-81
2023/12/26 10:55:57;;;;;;;0.50;0.40;;;10.10;99.90;;;;;;5038770;28;20691;-82
2023/12/26 10:58:29;;;;;;;0.50;0.40;;;10.80;99.90;;;;;;5022212;28;20526;-81
2023/12/26 13:56:45;;;;;;;0.60;0.60;;;9.90;99.90;;;;;;5016960;28;20395;-79
2023/12/26 13:59:49;;;;;;;0.50;0.40;;;9.80;99.90;;;;;;5022039;28;20462;-79
2023/12/26 14:02:53;;;;;;;0.50;0.50;;;9.70;99.90;;;;;;5026143;28;20544;-79
2023/12/26 14:05:57;;;;;;;0.95;0.88;;;9.70;99.90;;;;;;5018737;28;20439;-79
2023/12/26 14:09:01;;;;;;;6.47;1.65;;;9.60;99.90;;;;;;5020877;28;20194;-79
2023/12/26 14:12:06;;;;;;;0.60;0.60;;;9.50;99.90;;;;;;5022155;28;20215;-79
2023/12/26 14:15:10;;;;;;;0.77;0.77;;;9.60;99.90;;;;;;5018712;28;20446;-78
2023/12/26 14:18:14;;;;;;;0.52;0.45;;;9.50;99.90;;;;;;5014154;28;20667;-78
2023/12/26 14:21:18;;;;;;;0.98;0.77;;;9.50;99.90;;;;;;5017477;28;20227;-79
2023/12/26 14:24:22;;;;;;;0.90;0.90;;;9.50;99.90;;;;;;5018699;28;20227;-79
2023/12/26 14:27:26;;;;;;;0.50;0.40;;;9.40;99.90;;;;;;5017512;28;20200;-79
2023/12/26 14:30:30;;;;;;;3.67;1.10;;;9.40;99.90;;;;;;5027614;28;20211;-79
2023/12/26 14:33:34;;;;;;;0.50;0.40;;;9.40;99.90;;;;;;5027306;28;20447;-77
2023/12/26 14:36:38;;;;;;;0.50;0.40;;;9.40;99.90;;;;;;5027243;28;20434;-79
2023/12/26 14:39:42;;;;;;;0.50;0.40;;;9.40;99.90;;;;;;5009706;28;20453;-79
2023/12/26 14:42:46;;;;;;;0.50;0.40;;;9.40;99.90;;;;;;5009969;28;20213;-79
2023/12/26 14:45:50;;;;;;;0.50;0.40;;;9.30;99.90;;;;;;5015115;28;20783;-79
2023/12/26 14:48:54;;;;;;;20.77;0.90;;;9.30;99.90;;;;;;5011217;28;20447;-79
2023/12/26 14:51:58;;;;;;;0.50;0.40;;;9.30;99.90;;;;;;5018479;28;20470;-79
2023/12/26 14:55:03;;;;;;;0.90;0.80;;;9.30;99.90;;;;;;5011862;28;20192;-79
2023/12/26 14:58:07;;;;;;;2.10;0.60;;;9.30;99.90;;;;;;5019494;28;20195;-79
2023/12/26 15:01:11;;;;;;;0.50;0.40;;;9.20;99.90;;;;;;5014053;28;20458;-79
2023/12/26 15:03:39;;;;;;;0.50;0.40;;;9.20;99.90;;;;;;5022286;28;20195;-80
2023/12/26 15:06:08;;;;;;;0.50;0.40;;;9.20;99.90;;;;;;5019700;28;20461;-80
2023/12/26 15:08:35;;;;;;;0.50;0.40;;;9.20;99.90;;;;;;5021457;28;20197;-79
2023/12/26 15:11:02;;;;;;;0.60;0.60;;;9.20;99.90;;;;;;5022925;28;20220;-79
2023/12/26 15:13:28;;;;;;;0.68;0.60;;;9.30;99.90;;;;;;5025527;28;20243;-80
2023/12/26 15:15:55;;;;;;;0.50;0.40;;;9.30;99.90;;;;;;5027463;28;20283;-78
2023/12/26 15:18:24;;;;;;;0.60;0.50;;;9.20;99.90;;;;;;5029211;28;20869;-80
2023/12/26 15:20:52;;;;;;;0.95;0.95;;;9.20;99.90;;;;;;5030941;28;20559;-79
2023/12/26 15:23:19;;;;;;;0.50;0.40;;;9.10;99.90;;;;;;5030902;28;20276;-79
2023/12/26 15:25:46;;;;;;;0.50;0.50;;;9.10;99.90;;;;;;5030292;28;20264;-78
2023/12/26 15:28:12;;;;;;;0.50;0.40;;;9.00;99.90;;;;;;5035966;28;20216;-78
2023/12/26 15:30:41;;;;;;;1.07;0.90;;;8.90;99.90;;;;;;5026623;28;20506;-79
2023/12/26 15:33:07;;;;;;;0.50;0.50;;;8.80;99.90;;;;;;5032911;28;20443;-80
2023/12/26 15:35:35;;;;;;;0.50;0.40;;;8.70;99.90;;;;;;5020346;28;20467;-80
2023/12/26 15:38:03;;;;;;;0.50;0.40;;;8.60;99.90;;;;;;5017975;28;20284;-80
2023/12/26 15:40:31;;;;;;;3.80;1.00;;;8.50;99.90;;;;;;5018744;28;20547;-79
2023/12/26 15:42:58;;;;;;;0.50;0.50;;;8.50;99.90;;;;;;5032520;28;20473;-79
2023/12/26 15:45:25;;;;;;;0.50;0.40;;;8.50;99.90;;;;;;5046134;28;20435;-75
2023/12/26 15:47:54;;;;;;;0.50;0.40;;;8.50;99.90;;;;;;5044909;28;20215;-79
2023/12/26 15:50:21;;;;;;;0.50;0.40;;;8.40;99.90;;;;;;5041432;28;20477;-79
2023/12/26 15:52:48;;;;;;;0.95;0.95;;;8.40;99.90;;;;;;5017534;28;20204;-79
2023/12/26 15:55:17;;;;;;;0.88;0.88;;;8.40;99.90;;;;;;5015602;28;20264;-79
2023/12/26 15:57:42;;;;;;;0.50;0.40;;;8.40;99.90;;;;;;5028386;28;20243;-79
2023/12/26 16:00:10;;;;;;;0.50;0.40;;;8.40;99.90;;;;;;5034100;28;20211;-79
2023/12/26 16:02:37;;;;;;;0.50;0.40;;;8.40;99.90;;;;;;5036955;28;20467;-81
2023/12/26 16:05:04;;;;;;;0.50;0.40;;;8.40;99.90;;;;;;5038292;28;20230;-80